Glendale Heights, Illinois
Current Conditions -  °F | °C
As of 11:52 AM on Thursday 18 Dec 2014 (Local Time) from KDPA Reporting Station
Scattered Clouds Scattered Clouds  
Wind Chill: 21°   Ceiling: Unl
Heat Index: 26°   Visibility: 10mi
Dew Point: 16°   Wind: 5mph
Humidity: 66%   Direction: 290°WNW
Pressure: 30.25"   Gusts: NA
Location:  41.92°N, 88.07°W
Report Text: KDPA 181752Z 29004KT 10SM SCT021 M03/M09 A3025 RMK AO2 SLP253 T10331089 11033 21067 58018
Loading
Personal Weather Stations






























Interactive Weather Map New forecast layout! Learn more

10-Day Weather Forecast

Advertisements
Track Severe Weather on mobile